sensor_id;sensor_type;location;lat;lon;timestamp;pressure;altitude;pressure_sealevel;temperature;humidity
78623;BME280;67943;54.412;9.502;2023-04-15T00:00:25;100996.81;;;8.36;77.32
78623;BME280;67943;54.412;9.502;2023-04-15T00:05:28;100984.59;;;8.33;77.65
78623;BME280;67943;54.412;9.502;2023-04-15T00:10:30;100982.81;;;8.31;78.10
78623;BME280;67943;54.412;9.502;2023-04-15T00:15:33;100984.56;;;8.32;78.18
78623;BME280;67943;54.412;9.502;2023-04-15T00:20:34;100981.94;;;8.35;78.30
78623;BME280;67943;54.412;9.502;2023-04-15T00:25:36;100980.22;;;8.34;78.43
78623;BME280;67943;54.412;9.502;2023-04-15T00:30:39;100972.34;;;8.31;78.68
78623;BME280;67943;54.412;9.502;2023-04-15T00:35:41;100969.72;;;8.31;78.93
78623;BME280;67943;54.412;9.502;2023-04-15T00:40:42;100974.09;;;8.35;78.95
78623;BME280;67943;54.412;9.502;2023-04-15T00:45:45;100968.84;;;8.32;79.10
78623;BME280;67943;54.412;9.502;2023-04-15T00:50:47;100967.97;;;8.30;79.45
78623;BME280;67943;54.412;9.502;2023-04-15T00:55:48;100961.88;;;8.28;79.86
78623;BME280;67943;54.412;9.502;2023-04-15T01:00:51;100956.63;;;8.34;79.56
78623;BME280;67943;54.412;9.502;2023-04-15T01:05:54;100953.13;;;8.35;79.73
78623;BME280;67943;54.412;9.502;2023-04-15T01:11:00;100957.50;;;8.34;79.98
78623;BME280;67943;54.412;9.502;2023-04-15T01:16:04;100947.00;;;8.36;79.80
78623;BME280;67943;54.412;9.502;2023-04-15T01:21:06;100933.00;;;8.37;79.83
78623;BME280;67943;54.412;9.502;2023-04-15T01:26:09;100932.88;;;8.44;79.93
78623;BME280;67943;54.412;9.502;2023-04-15T01:31:13;100925.94;;;8.39;80.20
78623;BME280;67943;54.412;9.502;2023-04-15T01:36:15;100932.16;;;8.33;80.62
78623;BME280;67943;54.412;9.502;2023-04-15T01:41:20;100921.59;;;8.38;80.17
78623;BME280;67943;54.412;9.502;2023-04-15T01:46:22;100918.94;;;8.41;80.28
78623;BME280;67943;54.412;9.502;2023-04-15T01:51:24;100925.94;;;8.39;80.37
78623;BME280;67943;54.412;9.502;2023-04-15T01:56:27;100922.50;;;8.37;80.60
78623;BME280;67943;54.412;9.502;2023-04-15T02:01:29;100919.84;;;8.38;80.84
78623;BME280;67943;54.412;9.502;2023-04-15T02:06:31;100918.06;;;8.42;80.82
78623;BME280;67943;54.412;9.502;2023-04-15T02:11:34;100921.53;;;8.42;80.66
78623;BME280;67943;54.412;9.502;2023-04-15T02:16:36;100922.41;;;8.43;80.87
78623;BME280;67943;54.412;9.502;2023-04-15T02:21:37;100919.72;;;8.49;80.65
78623;BME280;67943;54.412;9.502;2023-04-15T02:26:40;100924.13;;;8.49;80.93
78623;BME280;67943;54.412;9.502;2023-04-15T02:31:42;100925.84;;;8.50;80.52
78623;BME280;67943;54.412;9.502;2023-04-15T02:36:44;100925.00;;;8.48;81.19
78623;BME280;67943;54.412;9.502;2023-04-15T02:41:49;100933.78;;;8.42;81.25
78623;BME280;67943;54.412;9.502;2023-04-15T02:46:51;100943.34;;;8.49;81.31
78623;BME280;67943;54.412;9.502;2023-04-15T02:51:54;100947.69;;;8.52;80.96
78623;BME280;67943;54.412;9.502;2023-04-15T02:56:56;100948.56;;;8.52;81.37
78623;BME280;67943;54.412;9.502;2023-04-15T03:01:58;100948.56;;;8.52;81.31
78623;BME280;67943;54.412;9.502;2023-04-15T03:07:00;100947.66;;;8.53;81.16
78623;BME280;67943;54.412;9.502;2023-04-15T03:12:03;100944.13;;;8.57;81.15
78623;BME280;67943;54.412;9.502;2023-04-15T03:17:05;100935.41;;;8.54;81.33
78623;BME280;67943;54.412;9.502;2023-04-15T03:22:07;100933.66;;;8.54;81.41
78623;BME280;67943;54.412;9.502;2023-04-15T03:27:10;100928.44;;;8.51;81.62
78623;BME280;67943;54.412;9.502;2023-04-15T03:32:12;100926.69;;;8.53;81.98
78623;BME280;67943;54.412;9.502;2023-04-15T03:37:14;100932.88;;;8.46;82.37
78623;BME280;67943;54.412;9.502;2023-04-15T03:42:17;100935.41;;;8.55;81.94
78623;BME280;67943;54.412;9.502;2023-04-15T03:47:18;100939.81;;;8.52;81.97
78623;BME280;67943;54.412;9.502;2023-04-15T03:52:20;100946.72;;;8.59;81.88
78623;BME280;67943;54.412;9.502;2023-04-15T03:57:22;100950.31;;;8.52;82.22
78623;BME280;67943;54.412;9.502;2023-04-15T04:02:24;100955.50;;;8.58;82.11
78623;BME280;67943;54.412;9.502;2023-04-15T04:07:27;100945.06;;;8.50;82.19
78623;BME280;67943;54.412;9.502;2023-04-15T04:12:30;100938.91;;;8.54;82.46
78623;BME280;67943;54.412;9.502;2023-04-15T04:17:31;100936.31;;;8.53;82.13
78623;BME280;67943;54.412;9.502;2023-04-15T04:22:36;100937.25;;;8.47;82.62
78623;BME280;67943;54.412;9.502;2023-04-15T04:27:39;100941.63;;;8.46;82.92
78623;BME280;67943;54.412;9.502;2023-04-15T04:32:41;100938.03;;;8.54;82.79
78623;BME280;67943;54.412;9.502;2023-04-15T04:37:42;100939.88;;;8.45;83.01
78623;BME280;67943;54.412;9.502;2023-04-15T04:42:45;100937.25;;;8.47;82.88
78623;BME280;67943;54.412;9.502;2023-04-15T04:47:47;100930.22;;;8.49;82.75
78623;BME280;67943;54.412;9.502;2023-04-15T04:52:49;100926.66;;;8.55;83.03
78623;BME280;67943;54.412;9.502;2023-04-15T04:57:51;100936.31;;;8.53;83.01
78623;BME280;67943;54.412;9.502;2023-04-15T05:02:53;100929.34;;;8.50;83.13
78623;BME280;67943;54.412;9.502;2023-04-15T05:07:55;100946.72;;;8.59;82.88
78623;BME280;67943;54.412;9.502;2023-04-15T05:12:57;100948.47;;;8.60;82.88
78623;BME280;67943;54.412;9.502;2023-04-15T05:17:59;100951.13;;;8.57;83.29
78623;BME280;67943;54.412;9.502;2023-04-15T05:23:00;100953.66;;;8.66;82.71
78623;BME280;67943;54.412;9.502;2023-04-15T05:28:04;100944.94;;;8.64;82.86
78623;BME280;67943;54.412;9.502;2023-04-15T05:33:05;100954.50;;;8.66;82.73
78623;BME280;67943;54.412;9.502;2023-04-15T05:38:07;100956.19;;;8.70;82.88
78623;BME280;67943;54.412;9.502;2023-04-15T05:43:10;100959.66;;;8.75;82.76
78623;BME280;67943;54.412;9.502;2023-04-15T05:48:11;100960.53;;;8.74;83.06
78623;BME280;67943;54.412;9.502;2023-04-15T05:53:13;100957.03;;;8.74;83.06
78623;BME280;67943;54.412;9.502;2023-04-15T05:58:16;100942.97;;;8.81;83.41
78623;BME280;67943;54.412;9.502;2023-04-15T06:03:17;100949.09;;;8.82;83.24
78623;BME280;67943;54.412;9.502;2023-04-15T06:08:19;100950.69;;;8.95;83.03
78623;BME280;67943;54.412;9.502;2023-04-15T06:13:22;100954.25;;;8.88;83.15
78623;BME280;67943;54.412;9.502;2023-04-15T06:18:23;100972.50;;;8.97;83.14
78623;BME280;67943;54.412;9.502;2023-04-15T06:23:25;100974.31;;;8.93;83.54
78623;BME280;67943;54.412;9.502;2023-04-15T06:28:28;100975.06;;;9.03;83.26
78623;BME280;67943;54.412;9.502;2023-04-15T06:33:30;100985.56;;;9.01;83.66
78623;BME280;67943;54.412;9.502;2023-04-15T06:38:32;100997.78;;;9.04;83.65
78623;BME280;67943;54.412;9.502;2023-04-15T06:43:34;101004.78;;;9.05;83.91
78623;BME280;67943;54.412;9.502;2023-04-15T06:48:37;101004.72;;;9.11;83.64
78623;BME280;67943;54.412;9.502;2023-04-15T06:53:39;101008.22;;;9.10;84.00
78623;BME280;67943;54.412;9.502;2023-04-15T06:58:43;101009.88;;;9.19;83.73
78623;BME280;67943;54.412;9.502;2023-04-15T07:03:44;101014.97;;;9.29;83.48
78623;BME280;67943;54.412;9.502;2023-04-15T07:08:46;101017.53;;;9.34;83.62
78623;BME280;67943;54.412;9.502;2023-04-15T07:13:49;101017.63;;;9.28;83.78
78623;BME280;67943;54.412;9.502;2023-04-15T07:18:50;101015.84;;;9.28;84.17
78623;BME280;67943;54.412;9.502;2023-04-15T07:23:52;101034.19;;;9.31;84.09
78623;BME280;67943;54.412;9.502;2023-04-15T07:28:55;101046.31;;;9.44;83.46
78623;BME280;67943;54.412;9.502;2023-04-15T07:33:56;101037.47;;;9.52;83.59
78623;BME280;67943;54.412;9.502;2023-04-15T07:38:58;101041.84;;;9.51;83.43
78623;BME280;67943;54.412;9.502;2023-04-15T07:44:02;101048.75;;;9.55;83.15
78623;BME280;67943;54.412;9.502;2023-04-15T07:49:04;101052.22;;;9.59;82.97
78623;BME280;67943;54.412;9.502;2023-04-15T07:54:06;101055.63;;;9.67;81.83
78623;BME280;67943;54.412;9.502;2023-04-15T07:59:09;101054.75;;;9.68;81.30
78623;BME280;67943;54.412;9.502;2023-04-15T08:04:11;101067.06;;;9.63;81.62
78623;BME280;67943;54.412;9.502;2023-04-15T08:09:12;101051.81;;;9.88;80.91
78623;BME280;67943;54.412;9.502;2023-04-15T08:14:15;101073.88;;;9.79;80.40
78623;BME280;67943;54.412;9.502;2023-04-15T08:19:17;101079.03;;;9.82;80.30
78623;BME280;67943;54.412;9.502;2023-04-15T08:24:18;101075.50;;;9.86;80.66
78623;BME280;67943;54.412;9.502;2023-04-15T08:29:21;101071.84;;;9.96;79.67
78623;BME280;67943;54.412;9.502;2023-04-15T08:34:23;101084.03;;;10.03;79.44
78623;BME280;67943;54.412;9.502;2023-04-15T08:39:25;101077.06;;;9.99;79.81
78623;BME280;67943;54.412;9.502;2023-04-15T08:44:29;101084.72;;;10.13;79.22
78623;BME280;67943;54.412;9.502;2023-04-15T08:49:32;101090.72;;;10.26;78.45
78623;BME280;67943;54.412;9.502;2023-04-15T08:54:35;101085.69;;;10.10;78.91
78623;BME280;67943;54.412;9.502;2023-04-15T08:59:38;101102.41;;;10.03;79.05
78623;BME280;67943;54.412;9.502;2023-04-15T09:04:40;101104.16;;;10.04;79.39
78623;BME280;67943;54.412;9.502;2023-04-15T09:09:41;101118.16;;;10.06;79.76
78623;BME280;67943;54.412;9.502;2023-04-15T09:14:45;101119.13;;;9.99;79.39
78623;BME280;67943;54.412;9.502;2023-04-15T09:19:47;101126.13;;;10.00;79.34
78623;BME280;67943;54.412;9.502;2023-04-15T09:24:49;101128.75;;;10.00;79.28
78623;BME280;67943;54.412;9.502;2023-04-15T09:29:52;101133.78;;;10.15;79.50
78623;BME280;67943;54.412;9.502;2023-04-15T09:34:54;101137.19;;;10.25;79.26
78623;BME280;67943;54.412;9.502;2023-04-15T09:39:55;101142.19;;;10.40;79.25
78623;BME280;67943;54.412;9.502;2023-04-15T09:45:08;101146.22;;;10.66;77.97
78623;BME280;67943;54.412;9.502;2023-04-15T09:50:09;101148.50;;;10.86;77.39
78623;BME280;67943;54.412;9.502;2023-04-15T09:55:12;101159.81;;;10.91;77.17
78623;BME280;67943;54.412;9.502;2023-04-15T10:00:15;101164.91;;;11.00;75.72
78623;BME280;67943;54.412;9.502;2023-04-15T10:05:17;101159.81;;;10.91;76.60
78623;BME280;67943;54.412;9.502;2023-04-15T10:10:19;101165.09;;;10.91;77.18
78623;BME280;67943;54.412;9.502;2023-04-15T10:15:22;101172.38;;;11.26;75.54
78623;BME280;67943;54.412;9.502;2023-04-15T10:20:25;101166.13;;;11.74;75.18
78623;BME280;67943;54.412;9.502;2023-04-15T10:25:27;101173.03;;;12.22;73.80
78623;BME280;67943;54.412;9.502;2023-04-15T10:30:32;101177.75;;;12.46;72.35
78623;BME280;67943;54.412;9.502;2023-04-15T10:35:34;101179.34;;;12.53;73.05
78623;BME280;67943;54.412;9.502;2023-04-15T10:40:38;101185.72;;;13.49;68.80
78623;BME280;67943;54.412;9.502;2023-04-15T10:45:43;101179.13;;;13.95;67.67
78623;BME280;67943;54.412;9.502;2023-04-15T10:50:55;101183.19;;;14.64;65.22
78623;BME280;67943;54.412;9.502;2023-04-15T10:55:57;101190.81;;;14.73;64.30
78623;BME280;67943;54.412;9.502;2023-04-15T11:01:00;101192.97;;;14.62;63.50
78623;BME280;67943;54.412;9.502;2023-04-15T11:06:04;101193.53;;;15.49;62.41
78623;BME280;67943;54.412;9.502;2023-04-15T11:11:06;101199.97;;;16.15;59.54
78623;BME280;67943;54.412;9.502;2023-04-15T11:16:09;101208.34;;;17.15;57.55
78623;BME280;67943;54.412;9.502;2023-04-15T11:21:10;101200.47;;;18.50;53.58
78623;BME280;67943;54.412;9.502;2023-04-15T11:26:12;101196.75;;;19.42;50.29
78623;BME280;67943;54.412;9.502;2023-04-15T11:31:17;101202.19;;;20.86;47.53
78623;BME280;67943;54.412;9.502;2023-04-15T11:36:19;101198.00;;;22.83;43.45
78623;BME280;67943;54.412;9.502;2023-04-15T11:41:21;101208.41;;;23.54;41.30
78623;BME280;67943;54.412;9.502;2023-04-15T11:46:29;101207.84;;;24.12;39.83
78623;BME280;67943;54.412;9.502;2023-04-15T11:51:32;101216.19;;;25.41;37.38
78623;BME280;67943;54.412;9.502;2023-04-15T11:56:34;101216.78;;;25.80;36.25
78623;BME280;67943;54.412;9.502;2023-04-15T12:01:37;101221.28;;;26.69;34.87
78623;BME280;67943;54.412;9.502;2023-04-15T12:06:41;101220.03;;;27.16;33.54
78623;BME280;67943;54.412;9.502;2023-04-15T12:11:44;101224.94;;;25.21;35.15
78623;BME280;67943;54.412;9.502;2023-04-15T12:16:49;101221.38;;;24.49;37.77
78623;BME280;67943;54.412;9.502;2023-04-15T12:21:56;101235.91;;;24.21;37.33
78623;BME280;67943;54.412;9.502;2023-04-15T12:27:01;101241.59;;;25.26;35.06
78623;BME280;67943;54.412;9.502;2023-04-15T12:32:06;101244.84;;;24.71;35.95
78623;BME280;67943;54.412;9.502;2023-04-15T12:37:10;101252.06;;;25.77;34.25
78623;BME280;67943;54.412;9.502;2023-04-15T12:42:14;101257.16;;;26.37;33.21
78623;BME280;67943;54.412;9.502;2023-04-15T12:47:16;101253.63;;;26.91;32.29
78623;BME280;67943;54.412;9.502;2023-04-15T12:52:18;101265.25;;;26.37;33.69
78623;BME280;67943;54.412;9.502;2023-04-15T12:57:19;101274.41;;;23.83;37.30
78623;BME280;67943;54.412;9.502;2023-04-15T13:02:22;101283.44;;;21.31;42.49
78623;BME280;67943;54.412;9.502;2023-04-15T13:07:24;101290.47;;;19.54;46.02
78623;BME280;67943;54.412;9.502;2023-04-15T13:12:26;101302.06;;;18.63;47.50
78623;BME280;67943;54.412;9.502;2023-04-15T13:17:29;101301.44;;;18.18;49.29
78623;BME280;67943;54.412;9.502;2023-04-15T13:22:30;101301.91;;;18.27;49.52
78623;BME280;67943;54.412;9.502;2023-04-15T13:27:32;101312.84;;;18.41;49.72
78623;BME280;67943;54.412;9.502;2023-04-15T13:32:35;101297.38;;;18.29;49.69
78623;BME280;67943;54.412;9.502;2023-04-15T13:37:36;101294.66;;;18.49;49.56
78623;BME280;67943;54.412;9.502;2023-04-15T13:42:38;101312.03;;;18.39;49.25
78623;BME280;67943;54.412;9.502;2023-04-15T13:47:41;101319.88;;;18.03;50.27
78623;BME280;67943;54.412;9.502;2023-04-15T13:52:43;101323.88;;;17.93;51.17
78623;BME280;67943;54.412;9.502;2023-04-15T13:57:44;101325.72;;;17.91;50.53
78623;BME280;67943;54.412;9.502;2023-04-15T14:02:47;101333.50;;;17.95;50.13
78623;BME280;67943;54.412;9.502;2023-04-15T14:07:49;101335.44;;;17.29;52.39
78623;BME280;67943;54.412;9.502;2023-04-15T14:12:50;101343.44;;;17.06;52.17
78623;BME280;67943;54.412;9.502;2023-04-15T14:17:53;101357.00;;;16.76;53.34
78623;BME280;67943;54.412;9.502;2023-04-15T14:22:55;101357.06;;;16.98;52.35
78623;BME280;67943;54.412;9.502;2023-04-15T14:27:57;101354.09;;;16.59;53.87
78623;BME280;67943;54.412;9.502;2023-04-15T14:32:59;101359.53;;;16.56;53.61
78623;BME280;67943;54.412;9.502;2023-04-15T14:38:01;101360.94;;;16.66;53.10
78623;BME280;67943;54.412;9.502;2023-04-15T14:43:02;101367.47;;;16.33;53.57
78623;BME280;67943;54.412;9.502;2023-04-15T14:48:05;101379.03;;;16.32;54.40
78623;BME280;67943;54.412;9.502;2023-04-15T14:53:09;101383.94;;;16.67;52.46
78623;BME280;67943;54.412;9.502;2023-04-15T14:58:10;101385.53;;;16.23;53.16
78623;BME280;67943;54.412;9.502;2023-04-15T15:03:13;101385.41;;;16.01;54.07
78623;BME280;67943;54.412;9.502;2023-04-15T15:08:14;101391.50;;;15.78;54.60
78623;BME280;67943;54.412;9.502;2023-04-15T15:13:17;101399.06;;;15.64;55.29
78623;BME280;67943;54.412;9.502;2023-04-15T15:18:20;101401.94;;;16.09;54.40
78623;BME280;67943;54.412;9.502;2023-04-15T15:23:21;101411.84;;;16.04;53.86
78623;BME280;67943;54.412;9.502;2023-04-15T15:28:23;101415.84;;;15.65;55.32
78623;BME280;67943;54.412;9.502;2023-04-15T15:33:26;101415.66;;;15.71;55.20
78623;BME280;67943;54.412;9.502;2023-04-15T15:38:27;101432.13;;;15.52;55.52
78623;BME280;67943;54.412;9.502;2023-04-15T15:43:29;101449.41;;;15.08;57.00
78623;BME280;67943;54.412;9.502;2023-04-15T15:48:31;101446.88;;;15.04;56.78
78623;BME280;67943;54.412;9.502;2023-04-15T15:53:33;101445.69;;;14.84;57.41
78623;BME280;67943;54.412;9.502;2023-04-15T15:58:34;101454.56;;;14.83;58.06
78623;BME280;67943;54.412;9.502;2023-04-15T16:03:37;101467.97;;;14.77;58.87
78623;BME280;67943;54.412;9.502;2023-04-15T16:08:39;101465.81;;;14.92;58.14
78623;BME280;67943;54.412;9.502;2023-04-15T16:13:40;101485.19;;;14.94;57.95
78623;BME280;67943;54.412;9.502;2023-04-15T16:18:43;101483.44;;;14.93;57.86
78623;BME280;67943;54.412;9.502;2023-04-15T16:23:44;101495.34;;;14.78;58.19
78623;BME280;67943;54.412;9.502;2023-04-15T16:28:46;101503.91;;;14.55;59.06
78623;BME280;67943;54.412;9.502;2023-04-15T16:33:49;101508.19;;;14.61;58.31
78623;BME280;67943;54.412;9.502;2023-04-15T16:38:50;101503.84;;;14.23;59.67
78623;BME280;67943;54.412;9.502;2023-04-15T16:43:52;101516.03;;;14.30;59.25
78623;BME280;67943;54.412;9.502;2023-04-15T16:48:55;101517.63;;;14.37;59.40
78623;BME280;67943;54.412;9.502;2023-04-15T16:53:56;101530.38;;;14.19;59.88
78623;BME280;67943;54.412;9.502;2023-04-15T16:58:58;101531.91;;;14.30;59.49
78623;BME280;67943;54.412;9.502;2023-04-15T17:04:01;101543.47;;;14.26;59.18
78623;BME280;67943;54.412;9.502;2023-04-15T17:09:03;101544.16;;;13.98;60.37
78623;BME280;67943;54.412;9.502;2023-04-15T17:14:05;101548.53;;;13.99;59.50
78623;BME280;67943;54.412;9.502;2023-04-15T17:19:08;101556.41;;;14.02;59.43
78623;BME280;67943;54.412;9.502;2023-04-15T17:24:09;101559.47;;;13.85;59.87
78623;BME280;67943;54.412;9.502;2023-04-15T17:29:11;101573.19;;;13.63;60.71
78623;BME280;67943;54.412;9.502;2023-04-15T17:34:14;101569.25;;;13.82;59.83
78623;BME280;67943;54.412;9.502;2023-04-15T17:39:15;101580.72;;;13.39;60.74
78623;BME280;67943;54.412;9.502;2023-04-15T17:44:17;101584.53;;;13.26;60.82
78623;BME280;67943;54.412;9.502;2023-04-15T17:49:20;101593.63;;;13.10;61.31
78623;BME280;67943;54.412;9.502;2023-04-15T17:54:22;101597.03;;;13.18;60.50
78623;BME280;67943;54.412;9.502;2023-04-15T17:59:23;101605.31;;;12.98;61.14
78623;BME280;67943;54.412;9.502;2023-04-15T18:04:27;101616.34;;;12.71;61.81
78623;BME280;67943;54.412;9.502;2023-04-15T18:09:28;101613.88;;;12.63;62.04
78623;BME280;67943;54.412;9.502;2023-04-15T18:14:30;101624.44;;;12.63;62.07
78623;BME280;67943;54.412;9.502;2023-04-15T18:19:33;101633.25;;;12.61;61.96
78623;BME280;67943;54.412;9.502;2023-04-15T18:24:34;101635.22;;;12.48;62.29
78623;BME280;67943;54.412;9.502;2023-04-15T18:29:36;101637.75;;;12.56;62.19
78623;BME280;67943;54.412;9.502;2023-04-15T18:34:39;101650.34;;;12.40;62.16
78623;BME280;67943;54.412;9.502;2023-04-15T18:39:42;101654.06;;;12.25;62.71
78623;BME280;67943;54.412;9.502;2023-04-15T18:44:43;101679.78;;;12.11;62.88
78623;BME280;67943;54.412;9.502;2023-04-15T18:49:46;101687.88;;;11.96;63.45
78623;BME280;67943;54.412;9.502;2023-04-15T18:54:47;101701.03;;;12.00;63.06
78623;BME280;67943;54.412;9.502;2023-04-15T18:59:49;101704.78;;;11.81;63.70
78623;BME280;67943;54.412;9.502;2023-04-15T19:04:52;101715.38;;;11.78;63.99
78623;BME280;67943;54.412;9.502;2023-04-15T19:09:53;101720.75;;;11.66;65.21
78623;BME280;67943;54.412;9.502;2023-04-15T19:14:55;101726.84;;;11.69;65.04
78623;BME280;67943;54.412;9.502;2023-04-15T19:19:58;101732.34;;;11.53;65.84
78623;BME280;67943;54.412;9.502;2023-04-15T19:24:59;101738.66;;;11.33;66.25
78623;BME280;67943;54.412;9.502;2023-04-15T19:30:00;101746.69;;;11.23;66.22
78623;BME280;67943;54.412;9.502;2023-04-15T19:35:05;101762.50;;;11.20;65.42
78623;BME280;67943;54.412;9.502;2023-04-15T19:40:08;101765.19;;;11.12;64.80
78623;BME280;67943;54.412;9.502;2023-04-15T19:45:09;101773.09;;;11.15;64.17
78623;BME280;67943;54.412;9.502;2023-04-15T19:50:12;101775.66;;;11.21;64.05
78623;BME280;67943;54.412;9.502;2023-04-15T19:55:15;101782.69;;;11.22;63.70
78623;BME280;67943;54.412;9.502;2023-04-15T20:00:17;101783.56;;;11.24;63.76
78623;BME280;67943;54.412;9.502;2023-04-15T20:05:20;101781.88;;;11.12;64.16
78623;BME280;67943;54.412;9.502;2023-04-15T20:10:21;101789.78;;;11.11;64.30
78623;BME280;67943;54.412;9.502;2023-04-15T20:15:23;101796.78;;;11.18;64.04
78623;BME280;67943;54.412;9.502;2023-04-15T20:20:26;101791.53;;;11.15;64.25
78623;BME280;67943;54.412;9.502;2023-04-15T20:25:28;101797.69;;;11.14;64.17
78623;BME280;67943;54.412;9.502;2023-04-15T20:30:29;101802.03;;;11.18;64.07
78623;BME280;67943;54.412;9.502;2023-04-15T20:35:32;101790.66;;;11.11;64.17
78623;BME280;67943;54.412;9.502;2023-04-15T20:40:33;101789.84;;;11.02;64.69
78623;BME280;67943;54.412;9.502;2023-04-15T20:45:35;101787.19;;;11.06;64.79
78623;BME280;67943;54.412;9.502;2023-04-15T20:50:38;101782.81;;;11.04;64.63
78623;BME280;67943;54.412;9.502;2023-04-15T20:55:40;101787.22;;;11.00;65.10
78623;BME280;67943;54.412;9.502;2023-04-15T21:00:42;101781.06;;;11.06;64.88
78623;BME280;67943;54.412;9.502;2023-04-15T21:05:45;101791.63;;;11.00;65.18
78623;BME280;67943;54.412;9.502;2023-04-15T21:10:47;101782.06;;;10.91;65.58
78623;BME280;67943;54.412;9.502;2023-04-15T21:15:48;101794.25;;;11.01;65.51
78623;BME280;67943;54.412;9.502;2023-04-15T21:20:57;101789.97;;;10.90;65.99
78623;BME280;67943;54.412;9.502;2023-04-15T21:25:58;101801.38;;;10.89;66.08
78623;BME280;67943;54.412;9.502;2023-04-15T21:31:00;101802.25;;;10.88;66.07
78623;BME280;67943;54.412;9.502;2023-04-15T21:36:03;101816.31;;;10.83;66.24
78623;BME280;67943;54.412;9.502;2023-04-15T21:41:05;101817.22;;;10.79;66.41
78623;BME280;67943;54.412;9.502;2023-04-15T21:46:08;101819.88;;;10.76;66.61
78623;BME280;67943;54.412;9.502;2023-04-15T21:51:11;101826.03;;;10.75;66.46
78623;BME280;67943;54.412;9.502;2023-04-15T21:56:13;101832.16;;;10.74;66.77
78623;BME280;67943;54.412;9.502;2023-04-15T22:01:15;101830.41;;;10.73;66.79
78623;BME280;67943;54.412;9.502;2023-04-15T22:06:18;101833.94;;;10.71;66.85
78623;BME280;67943;54.412;9.502;2023-04-15T22:11:20;101837.53;;;10.59;67.24
78623;BME280;67943;54.412;9.502;2023-04-15T22:16:26;101847.16;;;10.68;67.18
78623;BME280;67943;54.412;9.502;2023-04-15T22:21:29;101851.56;;;10.58;67.45
78623;BME280;67943;54.412;9.502;2023-04-15T22:26:30;101854.22;;;10.58;67.34
78623;BME280;67943;54.412;9.502;2023-04-15T22:31:32;101848.09;;;10.47;67.98
78623;BME280;67943;54.412;9.502;2023-04-15T22:36:35;101848.13;;;10.44;68.18
78623;BME280;67943;54.412;9.502;2023-04-15T22:41:36;101863.03;;;10.43;68.23
78623;BME280;67943;54.412;9.502;2023-04-15T22:46:38;101869.16;;;10.48;68.13
78623;BME280;67943;54.412;9.502;2023-04-15T22:51:40;101861.25;;;10.48;68.14
78623;BME280;67943;54.412;9.502;2023-04-15T22:56:42;101865.66;;;10.45;68.21
78623;BME280;67943;54.412;9.502;2023-04-15T23:01:43;101877.06;;;10.45;68.15
78623;BME280;67943;54.412;9.502;2023-04-15T23:06:46;101876.19;;;10.42;68.38
78623;BME280;67943;54.412;9.502;2023-04-15T23:11:48;101889.34;;;10.43;68.32
78623;BME280;67943;54.412;9.502;2023-04-15T23:16:49;101888.47;;;10.43;68.32
78623;BME280;67943;54.412;9.502;2023-04-15T23:21:52;101885.00;;;10.38;68.42
78623;BME280;67943;54.412;9.502;2023-04-15T23:26:53;101882.38;;;10.30;68.60
78623;BME280;67943;54.412;9.502;2023-04-15T23:31:56;101880.63;;;10.28;68.68
78623;BME280;67943;54.412;9.502;2023-04-15T23:36:59;101885.03;;;10.20;68.86
78623;BME280;67943;54.412;9.502;2023-04-15T23:42:00;101886.78;;;10.21;69.06
78623;BME280;67943;54.412;9.502;2023-04-15T23:47:02;101881.50;;;10.27;68.38
78623;BME280;67943;54.412;9.502;2023-04-15T23:52:05;101892.03;;;10.14;68.78
78623;BME280;67943;54.412;9.502;2023-04-15T23:57:06;101897.28;;;10.14;68.71
